CheckWX is a tool to help pilots better visualize weather data.  It is not intended as a substitute for an official pre-flight weather briefing.

12:23:53 UTC

KSZL METAR
Whiteman AFB Airport
Knob Noster, Missouri, USA
Current

1 hour ago

KSZL 251055Z 01009KT 10SM -RASN OVC007 01/01 A2983 RMK AO2A RAE26UPB26E28RAB28 SLP110 P0000 T00090009 $
Observed
Feb-25 @ 10:55 UTC
Wind
  • 010° at 9 KTS
Visibility
10 SM
Flight Rules
IFR
Conditions
Light Rain, Light Snow
Cloud Levels
  • Overcast at 700' AGL
Temperature
C / 34°F
Dewpoint
C / 34°F
Humidity
100%
Altimeter
29.83" Hg
Pressure
1010.12 hPa
Current Rain
0.01"
Previous

2 hours ago

KSZL 251013Z 01009KT 10SM -RASN OVC006 01/01 A2982 RMK SLP106 $
Observed
Feb-25 @ 10:13 UTC
Wind
  • 010° at 9 KTS
Visibility
10 SM
Flight Rules
IFR
Conditions
Light Rain, Light Snow
Cloud Levels
  • Overcast at 600' AGL
Temperature
C / 34°F
Dewpoint
C / 34°F
Humidity
100%
Altimeter
29.82" Hg
Pressure
1009.82 hPa
Previous

2 hours ago

KSZL 250956Z 36012KT 5SM -RA OVC006 01/01 A2981 RMK AO2A SLP103 P0001 T00140014 $
Observed
Feb-25 @ 09:56 UTC
Wind
  • 360° at 12 KTS
Visibility
5 SM
Flight Rules
IFR
Conditions
Light Rain
Cloud Levels
  • Overcast at 600' AGL
Temperature
C / 34°F
Dewpoint
C / 34°F
Humidity
100%
Altimeter
29.81" Hg
Pressure
1009.52 hPa
Current Rain
0.01"